Time;durP1;ratioP1;P1;durP2;ratioP2;P2;SDS_P1;SDS_P2;PMS_P1;PMS_P2;Temp;Humidity;BMP_temperature;BMP_pressure;BME280_temperature;BME280_humidity;BME280_pressure;Samples;Min_cycle;Max_cycle;Signal;HPM_P1;HPM_P2
2022/04/05 00:01:00;;;;;;;6.05;4.70;;;;;;;6.35;57.59;98313.38;2618714;54;20042;-64
2022/04/05 00:03:33;;;;;;;8.52;4.75;;;;;;;6.34;57.51;98309.13;2618682;54;20033;-63
2022/04/05 00:06:03;;;;;;;5.50;5.00;;;;;;;6.31;57.95;98312.91;2618490;54;20042;-63
2022/04/05 00:08:32;;;;;;;6.68;4.75;;;;;;;6.29;57.72;98308.84;2618198;54;20038;-63
2022/04/05 00:11:03;;;;;;;5.43;4.03;;;;;;;6.27;57.94;98309.03;2618596;54;20027;-63
2022/04/05 00:13:33;;;;;;;7.07;4.75;;;;;;;6.28;58.28;98312.44;2621545;54;20038;-64
2022/04/05 00:16:02;;;;;;;6.38;4.43;;;;;;;6.29;58.41;98301.78;2623518;54;20030;-63
2022/04/05 00:18:35;;;;;;;8.13;4.65;;;;;;;6.29;58.07;98304.41;2623380;39;20439;-63
2022/04/05 00:21:04;;;;;;;6.22;4.47;;;;;;;6.26;58.27;98296.09;2623069;54;20794;-64
2022/04/05 00:23:34;;;;;;;4.53;4.13;;;;;;;6.22;58.29;98285.13;2622876;54;20034;-64
2022/04/05 00:26:04;;;;;;;6.30;4.90;;;;;;;6.23;58.74;98304.31;2623468;54;20159;-64
2022/04/05 00:28:34;;;;;;;6.32;4.25;;;;;;;6.25;58.92;98292.66;2622977;54;20570;-63
2022/04/05 00:31:05;;;;;;;6.75;4.25;;;;;;;6.25;58.84;98302.34;2622518;54;20026;-64
2022/04/05 00:33:38;;;;;;;7.63;4.47;;;;;;;6.26;59.23;98293.47;2622648;54;20038;-63
2022/04/05 00:36:07;;;;;;;5.88;3.85;;;;;;;6.24;59.20;98296.25;2618311;54;20045;-63
2022/04/05 00:38:37;;;;;;;7.50;4.68;;;;;;;6.30;59.08;98299.97;2618878;54;20166;-63
2022/04/05 00:41:07;;;;;;;6.57;4.18;;;;;;;6.29;59.56;98298.34;2620738;54;20026;-64
2022/04/05 00:43:36;;;;;;;5.22;4.38;;;;;;;6.27;59.33;98289.84;2621121;54;20026;-65
2022/04/05 00:46:06;;;;;;;5.13;4.05;;;;;;;6.27;60.17;98288.00;2621246;54;20041;-63
2022/04/05 00:48:49;;;;;;;7.80;3.92;;;;;;;6.21;60.87;98291.38;2622570;39;20455;-64
2022/04/05 00:51:19;;;;;;;7.60;4.70;;;;;;;6.17;61.08;98305.84;2619848;54;20026;-63
2022/04/05 00:53:50;;;;;;;10.32;4.88;;;;;;;6.14;61.53;98295.69;2618926;54;20033;-64
2022/04/05 00:56:21;;;;;;;8.48;4.45;;;;;;;6.11;62.04;98282.91;2619685;54;20038;-64
2022/04/05 00:58:52;;;;;;;8.30;4.28;;;;;;;6.10;62.23;98282.09;2619328;54;20035;-65
2022/04/05 01:01:24;;;;;;;5.75;4.32;;;;;;;6.10;62.72;98278.66;2619286;54;20081;-64
2022/04/05 01:03:56;;;;;;;6.47;4.22;;;;;;;6.04;63.63;98297.72;2619386;54;20783;-62
2022/04/05 01:06:28;;;;;;;6.78;4.60;;;;;;;5.89;63.63;98280.09;2619251;39;20511;-63
2022/04/05 01:08:58;;;;;;;6.38;4.60;;;;;;;5.88;64.43;98282.91;2620388;54;20034;-62
2022/04/05 01:11:28;;;;;;;5.20;4.53;;;;;;;5.88;64.40;98281.09;2620963;54;20034;-64
2022/04/05 01:13:58;;;;;;;5.28;4.30;;;;;;;5.91;64.66;98275.47;2621418;54;20027;-62
2022/04/05 01:16:27;;;;;;;6.43;4.65;;;;;;;5.93;64.88;98278.78;2619432;54;20033;-62
2022/04/05 01:19:00;;;;;;;4.95;4.45;;;;;;;5.91;65.50;98269.41;2619079;39;20433;-62
2022/04/05 01:21:30;;;;;;;6.20;4.45;;;;;;;5.84;66.29;98274.56;2618697;39;20447;-62
2022/04/05 01:24:10;;;;;;;7.75;4.25;;;;;;;5.82;66.45;98275.72;2618513;54;20042;-64
2022/04/05 01:26:42;;;;;;;6.25;4.43;;;;;;;5.81;66.76;98284.59;2618732;39;20415;-62
2022/04/05 01:29:12;;;;;;;7.10;4.70;;;;;;;5.82;67.15;98279.16;2618171;54;20027;-62
2022/04/05 01:31:44;;;;;;;6.65;4.55;;;;;;;5.77;67.42;98275.44;2618219;54;20039;-62
2022/04/05 01:34:15;;;;;;;7.30;4.80;;;;;;;5.79;67.49;98271.63;2618357;54;20534;-61
2022/04/05 01:36:45;;;;;;;6.72;4.53;;;;;;;5.81;67.67;98268.84;2618400;54;20057;-63
2022/04/05 01:39:18;;;;;;;5.78;4.95;;;;;;;5.84;67.85;98281.63;2618097;54;20042;-62
2022/04/05 01:41:48;;;;;;;5.60;4.90;;;;;;;5.86;67.89;98264.69;2618380;54;20038;-62
2022/04/05 01:44:18;;;;;;;5.78;4.90;;;;;;;5.81;68.00;98274.91;2618145;54;20038;-63
2022/04/05 01:46:47;;;;;;;6.78;4.75;;;;;;;5.82;68.76;98265.22;2618449;39;20453;-63
2022/04/05 01:49:18;;;;;;;5.05;4.55;;;;;;;5.82;68.91;98265.22;2617953;54;20058;-62
2022/04/05 01:51:48;;;;;;;5.47;4.75;;;;;;;5.84;68.96;98265.88;2618199;54;20038;-62
2022/04/05 01:54:21;;;;;;;5.07;4.57;;;;;;;5.85;69.34;98262.25;2618084;54;20035;-63
2022/04/05 01:56:52;;;;;;;5.53;4.72;;;;;;;5.88;69.27;98251.44;2617972;54;20049;-62
2022/04/05 01:59:24;;;;;;;5.18;4.68;;;;;;;5.85;69.67;98249.97;2618102;54;20034;-62
2022/04/05 02:01:54;;;;;;;6.00;4.72;;;;;;;5.82;69.74;98259.97;2617908;54;20039;-62
2022/04/05 02:04:24;;;;;;;7.30;5.00;;;;;;;5.75;70.06;98259.03;2617950;54;20042;-63
2022/04/05 02:06:53;;;;;;;5.38;4.85;;;;;;;5.73;70.61;98259.22;2617410;54;20042;-62
2022/04/05 02:09:26;;;;;;;5.18;4.63;;;;;;;5.68;71.07;98269.44;2618504;39;20521;-63
2022/04/05 02:11:55;;;;;;;6.65;4.70;;;;;;;5.63;71.42;98259.47;2617559;47;20027;-63
2022/04/05 02:14:40;;;;;;;6.22;5.07;;;;;;;5.64;71.53;98262.91;2617282;54;20606;-63
2022/04/05 02:17:14;;;;;;;5.57;5.07;;;;;;;5.67;71.78;98265.16;2617169;47;20031;-62
2022/04/05 02:19:46;;;;;;;7.18;4.82;;;;;;;5.74;72.06;98263.47;2617255;54;20033;-63
2022/04/05 02:22:19;;;;;;;6.03;4.60;;;;;;;5.66;72.96;98268.78;2617281;49;20047;-64
2022/04/05 02:24:56;;;;;;;4.82;4.32;;;;;;;5.60;72.83;98269.50;2617847;54;20042;-62
2022/04/05 02:27:32;;;;;;;6.38;4.75;;;;;;;5.63;73.03;98269.97;2617973;54;20026;-62
2022/04/05 02:30:02;;;;;;;5.65;4.93;;;;;;;5.64;73.11;98268.97;2622579;54;20022;-63
2022/04/05 02:32:33;;;;;;;6.18;4.78;;;;;;;5.67;72.94;98257.28;2618638;47;20034;-62
2022/04/05 02:35:03;;;;;;;5.93;4.50;;;;;;;5.68;73.14;98272.06;2618397;47;20042;-63
2022/04/05 02:37:34;;;;;;;4.90;4.10;;;;;;;5.65;73.46;98267.97;2617052;54;20049;-63
2022/04/05 02:40:07;;;;;;;5.65;4.10;;;;;;;5.69;73.48;98261.38;2617933;54;20057;-65
2022/04/05 02:42:38;;;;;;;5.10;4.55;;;;;;;5.67;73.24;98260.75;2617183;54;20057;-64
2022/04/05 02:45:11;;;;;;;5.60;4.40;;;;;;;5.67;73.66;98262.53;2617201;54;20054;-62
2022/04/05 02:47:42;;;;;;;4.70;4.15;;;;;;;5.67;73.70;98260.75;2616965;54;20035;-62
2022/04/05 02:50:17;;;;;;;5.00;4.55;;;;;;;5.76;73.56;98260.69;2617946;54;20538;-62
2022/04/05 02:52:48;;;;;;;5.93;4.32;;;;;;;5.71;73.70;98254.16;2617230;47;20553;-63
2022/04/05 02:55:22;;;;;;;9.55;4.40;;;;;;;5.68;73.90;98248.44;2617181;54;20035;-63
2022/04/05 02:57:52;;;;;;;5.15;4.65;;;;;;;5.70;73.67;98251.69;2616875;51;20055;-62
2022/04/05 03:00:30;;;;;;;4.22;3.78;;;;;;;5.67;74.20;98258.13;2617299;54;20022;-62
2022/04/05 03:03:03;;;;;;;4.82;4.43;;;;;;;5.66;74.24;98256.47;2617344;47;20035;-62
2022/04/05 03:05:33;;;;;;;4.35;3.95;;;;;;;5.70;74.55;98262.19;2617193;47;20045;-61
2022/04/05 03:08:07;;;;;;;4.93;4.47;;;;;;;5.68;74.42;98248.44;2616975;47;20134;-61
2022/04/05 03:10:42;;;;;;;4.72;4.32;;;;;;;5.67;74.71;98247.66;2617330;50;20042;-61
2022/04/05 03:13:13;;;;;;;4.95;4.35;;;;;;;5.63;75.26;98256.00;2618062;39;20443;-61
2022/04/05 03:15:44;;;;;;;6.82;4.32;;;;;;;5.61;75.39;98258.81;2618151;47;20038;-61
2022/04/05 03:18:15;;;;;;;4.90;4.40;;;;;;;5.58;75.29;98253.09;2617732;47;20046;-61
2022/04/05 03:20:46;;;;;;;5.80;4.35;;;;;;;5.58;75.80;98255.72;2618437;47;20041;-62
2022/04/05 03:23:15;;;;;;;4.53;4.13;;;;;;;5.63;75.25;98248.97;2619302;54;20027;-62
2022/04/05 03:25:47;;;;;;;4.40;4.00;;;;;;;5.63;75.37;98242.91;2620211;54;20030;-62
2022/04/05 03:28:20;;;;;;;3.75;3.45;;;;;;;5.66;75.06;98250.41;2618797;54;20023;-62
2022/04/05 03:30:51;;;;;;;3.65;3.35;;;;;;;5.64;75.46;98241.94;2618057;47;20027;-62
2022/04/05 03:33:22;;;;;;;3.70;3.40;;;;;;;5.68;74.94;98244.03;2617954;54;20029;-62
2022/04/05 03:35:54;;;;;;;4.43;3.90;;;;;;;5.68;75.25;98243.22;2618832;54;20034;-62
2022/04/05 03:38:25;;;;;;;5.33;4.17;;;;;;;5.68;75.16;98251.06;2617689;47;20031;-62
2022/04/05 03:40:59;;;;;;;3.97;3.58;;;;;;;5.69;75.08;98245.66;2617974;54;20287;-62
2022/04/05 03:43:29;;;;;;;3.80;3.40;;;;;;;5.73;74.77;98246.13;2618113;54;20032;-62
2022/04/05 03:46:00;;;;;;;3.65;3.35;;;;;;;5.79;74.96;98236.72;2617920;47;20033;-63
2022/04/05 03:48:30;;;;;;;3.63;3.33;;;;;;;5.82;74.72;98241.63;2618078;54;20034;-62
2022/04/05 03:51:09;;;;;;;3.92;3.42;;;;;;;5.82;74.32;98258.16;2618091;47;20027;-62
2022/04/05 03:53:42;;;;;;;3.58;3.28;;;;;;;5.80;74.50;98243.63;2617996;46;20535;-62
2022/04/05 03:56:21;;;;;;;3.50;3.20;;;;;;;5.81;74.63;98247.88;2618018;54;20031;-63
2022/04/05 03:58:52;;;;;;;3.38;3.08;;;;;;;5.85;74.38;98247.34;2617480;47;20063;-61
2022/04/05 04:01:22;;;;;;;3.80;3.50;;;;;;;5.89;74.69;98247.81;2617827;54;20019;-62
2022/04/05 04:03:53;;;;;;;3.33;3.03;;;;;;;5.89;74.54;98242.56;2618022;47;20027;-62
2022/04/05 04:06:23;;;;;;;3.55;3.25;;;;;;;5.87;74.54;98237.47;2617951;47;20527;-61
2022/04/05 04:08:53;;;;;;;4.93;3.90;;;;;;;5.85;74.54;98236.84;2617672;46;20114;-63
2022/04/05 04:11:26;;;;;;;3.15;2.95;;;;;;;5.88;74.72;98241.75;2619003;39;20443;-62
2022/04/05 04:13:56;;;;;;;3.35;3.05;;;;;;;5.85;74.98;98239.47;2617974;54;20030;-62
2022/04/05 04:16:28;;;;;;;4.70;3.10;;;;;;;5.84;74.86;98237.03;2618456;51;20027;-62
2022/04/05 04:18:58;;;;;;;3.25;2.95;;;;;;;5.83;75.24;98243.25;2617798;47;20026;-62
2022/04/05 04:21:32;;;;;;;3.92;3.13;;;;;;;5.83;75.01;98246.69;2618058;47;20126;-62
2022/04/05 04:24:02;;;;;;;3.50;3.17;;;;;;;5.81;75.12;98234.75;2617774;47;20035;-63
2022/04/05 04:26:34;;;;;;;3.60;3.10;;;;;;;5.82;75.52;98245.06;2618593;54;20038;-62
2022/04/05 04:29:04;;;;;;;3.53;3.22;;;;;;;5.76;75.28;98242.34;2618164;54;20039;-62
2022/04/05 04:31:34;;;;;;;3.22;2.92;;;;;;;5.78;75.66;98242.97;2618445;39;20462;-63
2022/04/05 04:34:04;;;;;;;3.42;3.13;;;;;;;5.74;75.88;98245.13;2618039;54;20038;-63
2022/04/05 04:36:33;;;;;;;3.83;3.25;;;;;;;5.74;76.08;98236.44;2618583;54;20144;-63
2022/04/05 04:39:03;;;;;;;4.35;3.45;;;;;;;5.75;76.34;98244.13;2618236;54;20030;-64
2022/04/05 04:41:35;;;;;;;3.47;3.03;;;;;;;5.74;76.40;98246.94;2618927;39;20427;-64
2022/04/05 04:44:05;;;;;;;3.75;3.25;;;;;;;5.71;76.14;98248.94;2618412;54;20030;-62
2022/04/05 04:46:35;;;;;;;3.40;3.10;;;;;;;5.72;76.56;98252.38;2619248;39;20513;-62
2022/04/05 04:49:05;;;;;;;3.58;3.28;;;;;;;5.77;76.23;98241.34;2618149;54;20034;-64
2022/04/05 04:51:35;;;;;;;3.50;3.20;;;;;;;5.84;75.96;98231.78;2618004;47;20042;-63
2022/04/05 04:54:05;;;;;;;3.55;3.25;;;;;;;5.81;76.45;98234.75;2618280;54;20065;-62
2022/04/05 04:56:37;;;;;;;4.18;3.55;;;;;;;5.76;76.62;98243.16;2618699;54;20038;-65
2022/04/05 04:59:06;;;;;;;3.13;2.83;;;;;;;5.76;76.37;98242.34;2618068;54;20038;-62
2022/04/05 05:01:36;;;;;;;3.40;3.10;;;;;;;5.74;76.64;98252.19;2618691;54;20035;-64
2022/04/05 05:04:06;;;;;;;4.03;3.38;;;;;;;5.79;76.40;98248.03;2620846;54;20031;-63
2022/04/05 05:06:36;;;;;;;3.10;2.90;;;;;;;5.81;76.43;98246.06;2623062;54;20026;-63
2022/04/05 05:09:05;;;;;;;3.20;2.90;;;;;;;5.75;76.72;98252.00;2622322;54;20060;-64
2022/04/05 05:11:37;;;;;;;3.78;3.35;;;;;;;5.79;76.92;98240.16;2623554;54;20099;-63
2022/04/05 05:14:07;;;;;;;3.20;2.90;;;;;;;5.77;76.40;98250.03;2623556;54;20039;-64
2022/04/05 05:16:37;;;;;;;3.63;2.85;;;;;;;5.80;76.76;98249.69;2623271;54;20031;-65
2022/04/05 05:19:07;;;;;;;4.03;3.03;;;;;;;5.84;76.48;98265.88;2623279;54;20037;-62
2022/04/05 05:21:37;;;;;;;3.65;3.35;;;;;;;5.83;76.63;98245.88;2624054;54;20033;-63
2022/04/05 05:24:11;;;;;;;;;;;;;;;5.80;76.31;98251.50;2623707;54;20026;-63
2022/04/05 05:26:43;;;;;;;3.35;2.90;;;;;;;5.81;76.48;98246.06;2624220;54;19939;-63
2022/04/05 05:29:13;;;;;;;3.42;3.13;;;;;;;5.74;76.83;98253.00;2623384;54;20034;-62
2022/04/05 05:31:42;;;;;;;5.07;2.78;;;;;;;5.77;76.79;98267.56;2622863;54;20029;-62
2022/04/05 05:34:16;;;;;;;4.35;3.30;;;;;;;5.76;77.28;98260.69;2621032;54;20078;-62
2022/04/05 05:36:46;;;;;;;3.90;3.50;;;;;;;5.69;77.58;98268.44;2621135;54;20038;-62
2022/04/05 05:39:15;;;;;;;3.80;3.50;;;;;;;5.67;78.57;98266.00;2619127;54;20034;-63
2022/04/05 05:41:48;;;;;;;4.25;3.85;;;;;;;5.66;78.89;98261.72;2618794;54;20030;-63
2022/04/05 05:44:17;;;;;;;4.32;3.92;;;;;;;5.67;78.87;98255.50;2618251;54;20037;-63
2022/04/05 05:46:47;;;;;;;3.88;3.58;;;;;;;5.64;78.75;98262.91;2618040;54;20034;-62
2022/04/05 05:49:16;;;;;;;4.32;3.92;;;;;;;5.66;78.68;98269.59;2618911;39;20406;-62
2022/04/05 05:51:46;;;;;;;4.72;4.22;;;;;;;5.66;79.09;98260.91;2618912;39;20462;-62
2022/04/05 05:54:16;;;;;;;4.93;3.88;;;;;;;5.62;78.79;98255.19;2618221;54;20027;-62
2022/04/05 05:56:48;;;;;;;4.43;4.03;;;;;;;5.61;78.82;98247.50;2618482;54;20026;-62
2022/04/05 05:59:18;;;;;;;4.95;4.47;;;;;;;5.63;79.36;98262.09;2619094;39;20435;-61
2022/04/05 06:01:47;;;;;;;5.75;5.25;;;;;;;5.64;78.94;98262.91;2618355;54;20037;-63
2022/04/05 06:04:17;;;;;;;5.32;4.88;;;;;;;5.60;78.86;98264.25;2618049;54;20044;-62
2022/04/05 06:06:47;;;;;;;5.97;5.38;;;;;;;5.58;78.77;98276.69;2617971;54;20046;-63
2022/04/05 06:09:16;;;;;;;5.10;4.60;;;;;;;5.61;78.90;98282.41;2617250;47;20027;-63
2022/04/05 06:11:48;;;;;;;4.85;4.45;;;;;;;5.62;78.50;98293.72;2617976;54;20035;-64
2022/04/05 06:14:18;;;;;;;5.18;4.68;;;;;;;5.56;78.47;98297.03;2618238;54;20026;-63
2022/04/05 06:16:48;;;;;;;4.72;4.32;;;;;;;5.58;78.53;98289.81;2618128;54;20038;-62
2022/04/05 06:19:17;;;;;;;4.57;4.07;;;;;;;5.63;78.53;98296.19;2618029;54;20038;-63
2022/04/05 06:21:47;;;;;;;6.78;5.05;;;;;;;5.64;78.29;98294.38;2617955;54;20035;-62
2022/04/05 06:24:18;;;;;;;5.22;4.72;;;;;;;5.62;77.97;98291.09;2618149;54;20027;-62
2022/04/05 06:26:50;;;;;;;5.10;4.60;;;;;;;5.65;78.04;98296.00;2617766;54;20573;-63
2022/04/05 06:29:20;;;;;;;4.75;4.28;;;;;;;5.68;77.89;98301.72;2618175;54;20035;-63
2022/04/05 06:31:49;;;;;;;5.93;4.60;;;;;;;5.66;77.64;98300.25;2617883;54;20035;-63
2022/04/05 06:34:24;;;;;;;5.18;4.68;;;;;;;5.64;77.72;98307.47;2617864;54;20055;-63
2022/04/05 06:36:54;;;;;;;5.03;4.60;;;;;;;5.63;78.49;98308.44;2617532;54;20065;-62
2022/04/05 06:39:24;;;;;;;6.35;5.72;;;;;;;5.65;78.19;98312.53;2617938;54;20042;-63
2022/04/05 06:41:57;;;;;;;6.55;5.32;;;;;;;5.66;78.61;98316.78;2617936;54;20057;-63
2022/04/05 06:44:28;;;;;;;6.03;5.45;;;;;;;5.70;78.97;98310.22;2617266;54;20608;-62
2022/04/05 06:46:57;;;;;;;5.75;5.07;;;;;;;5.73;79.00;98322.19;2617592;54;20571;-63
2022/04/05 06:49:27;;;;;;;6.03;5.25;;;;;;;5.77;78.85;98320.03;2618573;54;20054;-63
2022/04/05 06:51:57;;;;;;;5.65;5.05;;;;;;;5.79;79.13;98318.84;2618580;54;20038;-63
2022/04/05 06:54:26;;;;;;;5.50;5.00;;;;;;;5.76;78.74;98308.72;2618740;54;20563;-63
2022/04/05 06:56:59;;;;;;;6.22;5.60;;;;;;;5.68;79.23;98317.44;2617828;47;20042;-62
2022/04/05 06:59:28;;;;;;;6.28;5.68;;;;;;;5.71;79.39;98322.34;2619007;54;20038;-63
2022/04/05 07:01:58;;;;;;;5.50;5.03;;;;;;;5.74;79.06;98321.19;2618992;39;20424;-63
2022/04/05 07:04:29;;;;;;;5.20;4.70;;;;;;;5.79;79.02;98318.03;2618693;54;20030;-63
2022/04/05 07:06:59;;;;;;;5.75;5.22;;;;;;;5.78;79.20;98313.78;2618673;54;20034;-62
2022/04/05 07:09:29;;;;;;;5.95;5.38;;;;;;;5.81;79.20;98306.38;2622178;54;20045;-63
2022/04/05 07:12:08;;;;;;;6.00;5.40;;;;;;;5.83;78.92;98312.25;2622694;54;20027;-63
2022/04/05 07:14:39;;;;;;;7.40;5.55;;;;;;;5.91;78.92;98312.19;2622637;54;20027;-63
2022/04/05 07:17:09;;;;;;;5.72;5.22;;;;;;;5.92;79.20;98305.22;2621627;54;20038;-63
2022/04/05 07:19:38;;;;;;;6.10;5.50;;;;;;;5.88;78.76;98307.31;2622399;54;20422;-63
2022/04/05 07:22:08;;;;;;;5.93;5.32;;;;;;;5.89;79.32;98308.16;2619257;54;20027;-63
2022/04/05 07:24:37;;;;;;;6.13;5.53;;;;;;;5.94;79.13;98301.41;2618806;54;20030;-63
2022/04/05 07:27:10;;;;;;;8.13;6.25;;;;;;;5.97;79.33;98299.44;2618697;54;20573;-63
2022/04/05 07:29:39;;;;;;;8.45;6.50;;;;;;;6.05;78.98;98300.19;2619017;54;20085;-62
2022/04/05 07:32:10;;;;;;;5.60;5.10;;;;;;;5.97;78.67;98300.25;2619070;54;20082;-62
2022/04/05 07:34:39;;;;;;;5.60;5.10;;;;;;;6.02;78.84;98297.91;2619837;54;20069;-64
2022/04/05 07:37:11;;;;;;;5.75;5.25;;;;;;;6.08;78.96;98312.13;2620676;54;20038;-62
2022/04/05 07:39:49;;;;;;;5.70;5.15;;;;;;;6.00;78.66;98318.28;2619165;47;20041;-63
2022/04/05 07:42:21;;;;;;;5.90;5.30;;;;;;;6.03;78.96;98319.72;2622288;54;20031;-62
2022/04/05 07:44:50;;;;;;;5.75;5.25;;;;;;;6.02;79.15;98318.09;2622608;54;20030;-62
2022/04/05 07:47:20;;;;;;;5.57;4.75;;;;;;;5.98;78.85;98312.38;2618715;54;20031;-62
2022/04/05 07:49:50;;;;;;;6.05;5.35;;;;;;;5.98;78.86;98311.56;2618934;54;20038;-62
2022/04/05 07:52:19;;;;;;;5.70;4.97;;;;;;;6.00;79.11;98302.53;2619324;39;20519;-62
2022/04/05 07:54:49;;;;;;;5.97;5.40;;;;;;;6.00;78.85;98305.16;2618762;54;20087;-61
2022/04/05 07:57:21;;;;;;;5.85;5.32;;;;;;;6.03;78.89;98301.34;2618521;54;20037;-62
2022/04/05 07:59:51;;;;;;;5.60;5.10;;;;;;;6.08;79.14;98317.38;2618785;39;20431;-62
2022/04/05 08:02:21;;;;;;;5.80;5.20;;;;;;;6.15;79.29;98305.19;2618486;54;20110;-62
2022/04/05 08:04:58;;;;;;;5.80;5.30;;;;;;;6.22;79.19;98313.19;2618613;54;20086;-62
2022/04/05 08:07:27;;;;;;;5.53;5.03;;;;;;;6.22;78.78;98321.06;2618329;54;20034;-63
2022/04/05 08:09:58;;;;;;;5.05;4.65;;;;;;;6.25;79.08;98323.31;2618006;54;20539;-63
2022/04/05 08:12:37;;;;;;;5.47;4.95;;;;;;;6.27;78.99;98310.84;2618570;54;20031;-63
2022/04/05 08:15:08;;;;;;;5.30;4.80;;;;;;;6.29;78.72;98328.03;2618451;54;20039;-62
2022/04/05 08:17:38;;;;;;;5.60;5.10;;;;;;;6.36;79.06;98336.00;2618459;54;20027;-63
2022/04/05 08:20:09;;;;;;;5.10;4.60;;;;;;;6.34;78.95;98320.44;2619086;39;20443;-62
2022/04/05 08:22:39;;;;;;;4.60;4.20;;;;;;;6.36;78.70;98318.44;2618617;46;20054;-63
2022/04/05 08:25:10;;;;;;;5.05;4.55;;;;;;;6.38;78.71;98315.66;2618565;54;20039;-62
2022/04/05 08:27:43;;;;;;;5.50;5.00;;;;;;;6.49;79.17;98319.66;2619332;39;20443;-62
2022/04/05 08:30:15;;;;;;;5.70;5.13;;;;;;;6.49;78.69;98322.28;2617970;54;20164;-61
2022/04/05 08:32:46;;;;;;;6.05;4.60;;;;;;;6.49;78.21;98332.78;2618889;39;20427;-61
2022/04/05 08:35:19;;;;;;;5.13;4.70;;;;;;;6.49;78.26;98330.16;2618702;54;20027;-62
2022/04/05 08:37:50;;;;;;;5.68;5.18;;;;;;;6.47;78.46;98329.53;2618456;54;20051;-62
2022/04/05 08:40:22;;;;;;;5.60;5.10;;;;;;;6.53;78.54;98327.03;2618176;47;20076;-61
2022/04/05 08:42:56;;;;;;;5.30;4.90;;;;;;;6.54;78.30;98336.53;2618800;54;20557;-62
2022/04/05 08:45:30;;;;;;;5.65;4.72;;;;;;;6.54;78.65;98340.97;2618780;54;20027;-61
2022/04/05 08:48:01;;;;;;;6.13;5.40;;;;;;;6.53;78.39;98336.69;2618110;54;20038;-61
2022/04/05 08:50:35;;;;;;;5.35;4.85;;;;;;;6.60;78.71;98329.72;2618797;39;20463;-61
2022/04/05 08:53:04;;;;;;;4.50;4.10;;;;;;;6.58;77.97;98334.38;2618497;54;20030;-61
2022/04/05 08:55:38;;;;;;;5.05;4.55;;;;;;;6.60;78.24;98338.44;2618244;54;20030;-62
2022/04/05 08:58:10;;;;;;;5.38;4.25;;;;;;;6.66;78.14;98339.53;2618026;54;20038;-63
2022/04/05 09:00:39;;;;;;;4.65;4.25;;;;;;;6.66;77.91;98334.28;2618480;54;20071;-64
2022/04/05 09:03:09;;;;;;;4.43;4.03;;;;;;;6.69;78.29;98336.53;2618292;54;20038;-63
2022/04/05 09:05:43;;;;;;;6.72;4.35;;;;;;;6.70;78.02;98325.88;2618078;54;20057;-61
2022/04/05 09:08:20;;;;;;;5.80;4.67;;;;;;;6.80;78.34;98322.16;2618027;54;20045;-62
2022/04/05 09:10:53;;;;;;;5.55;4.50;;;;;;;6.84;77.97;98329.50;2618173;54;20034;-62
2022/04/05 09:13:27;;;;;;;4.63;3.78;;;;;;;6.82;77.70;98330.69;2618479;54;20554;-61
2022/04/05 09:15:59;;;;;;;4.68;4.20;;;;;;;6.79;77.92;98331.03;2618321;54;20027;-61
2022/04/05 09:18:40;;;;;;;4.60;4.15;;;;;;;6.79;78.16;98339.72;2617937;54;20034;-61
2022/04/05 09:21:13;;;;;;;4.63;4.13;;;;;;;6.70;78.30;98336.38;2617612;54;20022;-61
2022/04/05 09:23:44;;;;;;;5.97;4.60;;;;;;;6.69;78.15;98333.91;2618356;54;20039;-61
2022/04/05 09:26:16;;;;;;;5.38;4.88;;;;;;;6.73;78.21;98329.94;2618310;54;20038;-61
2022/04/05 09:28:49;;;;;;;5.18;4.53;;;;;;;6.80;78.36;98343.16;2618719;39;20399;-63
2022/04/05 09:31:21;;;;;;;5.57;4.95;;;;;;;6.74;78.14;98344.72;2617980;54;20030;-62
2022/04/05 09:34:08;;;;;;;5.47;4.97;;;;;;;6.80;78.10;98345.78;2618233;54;20030;-63
2022/04/05 09:36:40;;;;;;;5.28;4.82;;;;;;;6.80;77.99;98341.34;2618175;54;20026;-62
2022/04/05 09:39:17;;;;;;;6.53;4.93;;;;;;;6.80;77.93;98343.97;2617963;54;20027;-62
2022/04/05 09:41:47;;;;;;;6.50;4.50;;;;;;;6.77;78.03;98338.25;2618096;54;20027;-62
2022/04/05 09:44:27;;;;;;;5.82;4.57;;;;;;;6.77;77.68;98336.44;2618687;39;20482;-63
2022/04/05 09:47:07;;;;;;;5.07;4.53;;;;;;;6.85;77.50;98325.06;2618052;54;20034;-63
2022/04/05 09:49:38;;;;;;;4.97;4.47;;;;;;;6.81;77.53;98339.53;2618049;54;20073;-61
2022/04/05 09:52:26;;;;;;;4.85;4.35;;;;;;;6.79;77.57;98326.59;2618135;54;20554;-62
2022/04/05 09:54:57;;;;;;;4.57;4.18;;;;;;;6.84;78.04;98339.19;2618478;54;20562;-63
2022/04/05 09:57:32;;;;;;;6.25;4.78;;;;;;;6.89;77.86;98327.13;2617484;54;20030;-64
2022/04/05 10:00:13;;;;;;;5.10;4.70;;;;;;;6.89;77.57;98348.16;2618248;54;20170;-62
2022/04/05 10:03:01;;;;;;;9.20;5.30;;;;;;;6.89;77.98;98340.28;2618707;47;20100;-62
2022/04/05 10:05:32;;;;;;;4.90;4.40;;;;;;;6.99;77.75;98339.22;2618143;54;20046;-62
2022/04/05 10:08:02;;;;;;;5.28;4.78;;;;;;;7.07;77.42;98331.22;2617287;47;20555;-63
2022/04/05 10:10:33;;;;;;;5.90;5.28;;;;;;;7.10;77.61;98333.47;2618143;54;20038;-64
2022/04/05 10:13:03;;;;;;;5.68;4.90;;;;;;;7.11;77.57;98346.47;2618507;39;20431;-61
2022/04/05 10:15:37;;;;;;;5.05;4.55;;;;;;;7.16;77.28;98338.84;2620123;54;20030;-62
2022/04/05 10:18:07;;;;;;;5.00;4.50;;;;;;;7.16;77.01;98344.09;2622740;54;20033;-62
2022/04/05 10:20:37;;;;;;;5.55;5.05;;;;;;;7.34;77.34;98338.44;2622861;54;20037;-63
2022/04/05 10:23:09;;;;;;;5.65;4.70;;;;;;;7.40;77.21;98343.00;2622800;47;20084;-63
2022/04/05 10:25:41;;;;;;;5.93;5.32;;;;;;;7.41;76.63;98336.72;2624068;54;20033;-62
2022/04/05 10:28:11;;;;;;;5.22;4.00;;;;;;;7.47;77.01;98343.09;2623327;54;20030;-63
2022/04/05 10:30:50;;;;;;;5.80;5.13;;;;;;;7.58;76.56;98344.41;2624218;54;20030;-62
2022/04/05 10:33:27;;;;;;;5.03;4.53;;;;;;;7.63;76.50;98339.41;2623816;54;20038;-62
2022/04/05 10:36:00;;;;;;;5.15;4.65;;;;;;;7.60;76.15;98340.59;2623748;54;20045;-63
2022/04/05 10:38:30;;;;;;;5.17;4.67;;;;;;;7.55;76.46;98335.09;2622200;39;20286;-63
2022/04/05 10:41:17;;;;;;;5.47;4.95;;;;;;;7.62;76.57;98329.88;2618627;54;20283;-63
2022/04/05 10:43:49;;;;;;;5.35;4.53;;;;;;;7.62;76.51;98333.31;2618930;54;20041;-62
2022/04/05 10:46:53;;;;;;;5.72;5.13;;;;;;;7.62;76.52;98327.25;2618963;54;20044;-62
2022/04/05 10:49:45;;;;;;;6.00;5.35;;;;;;;7.62;76.56;98330.69;2618830;54;20138;-63
2022/04/05 10:52:17;;;;;;;5.32;4.82;;;;;;;7.61;77.00;98323.81;2618624;54;20041;-62
2022/04/05 10:54:49;;;;;;;5.68;5.13;;;;;;;7.65;76.70;98326.91;2619101;39;20499;-63
2022/04/05 10:57:30;;;;;;;6.40;5.00;;;;;;;7.62;76.79;98322.00;2618056;54;20038;-63
2022/04/05 11:00:07;;;;;;;5.07;4.68;;;;;;;7.56;76.76;98331.44;2618823;54;20034;-63
2022/04/05 11:02:43;;;;;;;6.28;5.68;;;;;;;7.57;76.83;98330.44;2618766;54;20035;-63
2022/04/05 11:05:35;;;;;;;5.43;4.93;;;;;;;7.55;76.97;98329.00;2619546;31;20487;-63
2022/04/05 11:08:09;;;;;;;6.50;5.90;;;;;;;7.57;76.90;98335.72;2619206;39;20442;-63
2022/04/05 11:10:53;;;;;;;6.68;5.97;;;;;;;7.55;77.23;98329.81;2618075;54;20038;-63
2022/04/05 11:13:42;;;;;;;;;;;;;;;7.51;77.09;98335.63;2618930;54;20027;-63
2022/04/05 11:16:15;;;;;;;6.57;5.65;;;;;;;7.49;77.22;98335.81;2618663;54;19939;-62
2022/04/05 11:18:48;;;;;;;6.65;6.05;;;;;;;7.44;77.18;98336.38;2618538;54;20606;-62
2022/04/05 11:21:17;;;;;;;7.20;6.18;;;;;;;7.43;77.53;98328.66;2618406;54;20041;-63
2022/04/05 11:23:49;;;;;;;7.28;6.18;;;;;;;7.49;77.59;98338.44;2618891;54;20031;-62
2022/04/05 11:26:33;;;;;;;6.65;6.03;;;;;;;7.52;77.86;98332.81;2618561;47;20607;-62
2022/04/05 11:29:04;;;;;;;7.63;6.93;;;;;;;7.50;77.52;98332.19;2618535;54;20026;-62
2022/04/05 11:31:40;;;;;;;8.02;7.22;;;;;;;7.54;77.95;98336.06;2618758;54;20039;-62
2022/04/05 11:34:37;;;;;;;8.45;7.32;;;;;;;7.54;77.95;98338.69;2618468;54;20085;-63
2022/04/05 11:37:09;;;;;;;9.38;7.93;;;;;;;7.55;78.52;98337.72;2618466;54;20161;-63
2022/04/05 11:39:42;;;;;;;9.10;8.20;;;;;;;7.55;78.39;98342.13;2618824;39;20480;-63
2022/04/05 11:42:12;;;;;;;9.25;8.32;;;;;;;7.48;78.23;98336.00;2618439;54;20593;-63
2022/04/05 11:44:50;;;;;;;11.50;8.93;;;;;;;7.45;78.51;98345.06;2618892;54;20034;-61
2022/04/05 11:47:21;;;;;;;10.63;9.50;;;;;;;7.45;78.81;98338.00;2620273;39;20093;-63
2022/04/05 11:49:54;;;;;;;10.45;9.13;;;;;;;7.50;78.98;98334.81;2619594;54;20034;-64
2022/04/05 11:52:30;;;;;;;12.10;9.32;;;;;;;7.48;79.36;98330.75;2618813;47;20034;-64
2022/04/05 11:57:46;;;;;;;10.40;8.80;;;;;;;7.39;79.60;98325.59;2618661;54;20058;-62
2022/04/05 12:00:16;;;;;;;14.85;10.90;;;;;;;7.40;79.46;98334.28;2619203;54;20511;-63
2022/04/05 12:02:46;;;;;;;12.38;9.68;;;;;;;7.38;79.74;98333.66;2619125;54;20039;-63
2022/04/05 12:05:21;;;;;;;10.80;9.65;;;;;;;7.34;79.53;98327.94;2618345;47;20031;-62
2022/04/05 12:07:51;;;;;;;13.32;10.63;;;;;;;7.38;80.01;98328.38;2619258;39;20435;-62